Time;durP1;ratioP1;P1;durP2;ratioP2;P2;SDS_P1;SDS_P2;PMS_P1;PMS_P2;Temp;Humidity;BMP_temperature;BMP_pressure;BME280_temperature;BME280_humidity;BME280_pressure;Samples;Min_cycle;Max_cycle;Signal;HPM_P1;HPM_P2
2022/12/05 00:00:26;;;;;;;60.92;22.00;;;;;;;2.62;93.00;101170.00;5070245;28;20044;-64
2022/12/05 00:02:53;;;;;;;59.28;22.77;;;;;;;2.53;93.01;101167.94;5052636;28;20044;-64
2022/12/05 00:05:20;;;;;;;63.70;22.17;;;;;;;2.53;93.38;101161.84;5052750;28;20045;-64
2022/12/05 00:07:47;;;;;;;62.03;22.40;;;;;;;2.65;93.10;101164.56;5052674;28;20095;-64
2022/12/05 00:10:14;;;;;;;57.13;23.40;;;;;;;2.86;93.49;101164.22;5052984;28;20086;-64
2022/12/05 00:12:41;;;;;;;62.83;23.10;;;;;;;2.92;92.50;101173.47;5052877;28;20048;-64
2022/12/05 00:15:11;;;;;;;57.33;21.10;;;;;;;2.70;92.59;101166.91;5035694;28;20048;-64
2022/12/05 00:17:39;;;;;;;57.53;22.13;;;;;;;2.80;92.32;101175.03;5052838;28;20045;-64
2022/12/05 00:20:08;;;;;;;61.80;23.35;;;;;;;2.85;92.15;101170.38;5052698;28;20041;-64
2022/12/05 00:22:37;;;;;;;67.13;22.65;;;;;;;2.82;92.84;101179.28;5053522;28;20056;-64
2022/12/05 00:25:05;;;;;;;57.90;22.17;;;;;;;2.97;92.61;101180.13;5039191;28;20402;-64
2022/12/05 00:27:33;;;;;;;61.47;23.00;;;;;;;3.06;92.53;101178.72;5057172;28;20063;-64
2022/12/05 00:29:59;;;;;;;58.78;23.50;;;;;;;2.98;91.61;101183.56;5056520;28;20049;-64
2022/12/05 00:32:28;;;;;;;56.53;22.80;;;;;;;2.82;92.07;101178.41;5056956;28;20067;-64
2022/12/05 00:34:55;;;;;;;60.63;23.92;;;;;;;2.79;92.61;101178.63;5056593;28;20048;-64
2022/12/05 00:37:22;;;;;;;58.38;22.83;;;;;;;2.93;92.76;101176.00;5056610;28;20049;-64
2022/12/05 00:39:49;;;;;;;52.97;21.88;;;;;;;3.00;92.32;101179.94;5053949;28;20095;-64
2022/12/05 00:42:16;;;;;;;55.83;21.45;;;;;;;3.00;92.28;101182.56;5037756;28;20044;-64
2022/12/05 00:44:42;;;;;;;61.97;22.00;;;;;;;2.89;92.04;101177.09;5055812;28;20037;-64
2022/12/05 00:47:09;;;;;;;62.25;22.77;;;;;;;2.90;92.19;101165.69;5055829;28;20045;-64
2022/12/05 00:49:36;;;;;;;60.08;22.60;;;;;;;3.04;91.20;101185.84;5056289;28;20433;-64
2022/12/05 00:52:02;;;;;;;56.92;22.15;;;;;;;2.71;92.93;101170.38;5056272;28;20045;-64
2022/12/05 00:54:29;;;;;;;58.78;21.73;;;;;;;2.77;92.61;101170.84;5056740;28;20055;-64
2022/12/05 00:56:56;;;;;;;62.83;22.63;;;;;;;2.76;93.29;101177.00;5056360;28;20549;-64
2022/12/05 00:59:23;;;;;;;56.22;22.25;;;;;;;2.76;92.84;101166.53;5056343;28;20128;-64
2022/12/05 01:01:50;;;;;;;52.60;21.23;;;;;;;2.75;93.37;101166.63;5055842;28;20507;-64
2022/12/05 01:04:21;;;;;;;58.03;22.25;;;;;;;2.72;92.80;101177.31;5055955;28;20037;-64
2022/12/05 01:06:49;;;;;;;54.00;22.67;;;;;;;2.73;93.72;101165.88;5037681;28;20467;-64
2022/12/05 01:09:19;;;;;;;55.95;21.98;;;;;;;2.64;93.53;101165.50;5056173;28;20057;-64
2022/12/05 01:11:46;;;;;;;54.13;21.05;;;;;;;2.81;92.93;101171.50;5056228;28;20045;-64
2022/12/05 01:14:15;;;;;;;52.90;20.85;;;;;;;2.80;92.86;101161.94;5055890;28;20090;-64
2022/12/05 01:16:45;;;;;;;54.65;22.05;;;;;;;2.73;92.63;101165.88;5056258;28;20055;-64
2022/12/05 01:19:16;;;;;;;57.13;20.55;;;;;;;2.60;93.44;101165.78;5022277;28;20068;-64
2022/12/05 01:21:43;;;;;;;55.53;22.33;;;;;;;2.63;93.37;101162.97;5055944;28;20075;-64
2022/12/05 01:24:11;;;;;;;58.75;21.75;;;;;;;2.73;93.18;101161.50;5056018;28;20033;-64
2022/12/05 01:26:40;;;;;;;55.70;21.20;;;;;;;2.53;93.57;101161.84;5038352;28;20049;-64
2022/12/05 01:29:07;;;;;;;59.58;21.02;;;;;;;2.64;93.02;101167.28;5038053;28;20048;-64
2022/12/05 01:31:35;;;;;;;52.50;20.65;;;;;;;2.60;93.91;101168.38;5055622;28;20132;-64
2022/12/05 01:34:04;;;;;;;57.45;21.63;;;;;;;2.55;93.75;101163.44;5054880;28;20041;-64
2022/12/05 01:36:31;;;;;;;54.72;21.27;;;;;;;2.56;93.67;101170.34;5025647;28;20056;-64
2022/12/05 01:38:59;;;;;;;52.35;20.00;;;;;;;2.60;94.26;101171.00;5038065;28;20045;-64
2022/12/05 01:41:29;;;;;;;53.85;21.08;;;;;;;2.73;93.66;101182.47;5037828;28;20063;-65
2022/12/05 01:46:36;;;;;;;50.00;20.10;;;;;;;2.60;93.70;101182.34;5090960;28;20525;-64
2022/12/05 01:49:09;;;;;;;57.17;21.52;;;;;;;2.60;93.88;101178.88;5089152;28;20051;-64
2022/12/05 01:51:39;;;;;;;54.78;21.63;;;;;;;2.64;93.85;101181.22;5089652;28;20456;-64
2022/12/05 01:54:07;;;;;;;53.67;21.77;;;;;;;2.50;94.38;101176.81;5090711;28;20048;-64
2022/12/05 01:56:35;;;;;;;51.65;22.08;;;;;;;2.56;94.21;101187.84;5090700;28;20040;-63
2022/12/05 01:59:04;;;;;;;53.17;21.02;;;;;;;2.59;93.77;101185.06;5090366;28;20415;-64
2022/12/05 02:01:31;;;;;;;47.83;20.92;;;;;;;2.58;93.99;101188.59;5089110;28;20074;-64
2022/12/05 02:03:58;;;;;;;53.60;21.55;;;;;;;2.48;93.81;101193.56;5090641;28;20048;-64
2022/12/05 02:06:26;;;;;;;61.08;22.48;;;;;;;2.46;94.83;101184.94;5089507;28;20036;-64
2022/12/05 02:08:54;;;;;;;50.08;21.75;;;;;;;2.54;94.00;101182.69;5089176;28;20076;-64
2022/12/05 02:11:24;;;;;;;54.88;21.58;;;;;;;2.55;93.70;101183.53;5090208;28;20044;-64
2022/12/05 02:14:14;;;;;;;54.00;20.55;;;;;;;2.71;93.25;101181.72;5090223;28;20091;-64
2022/12/05 02:19:55;;;;;;;57.05;22.23;;;;;;;2.88;92.01;101188.53;5090739;28;20406;-64
2022/12/05 02:22:52;;;;;;;50.63;20.33;;;;;;;2.94;91.99;101188.16;5090484;28;20497;-64
2022/12/05 02:25:46;;;;;;;54.63;19.48;;;;;;;2.76;91.94;101190.13;5090628;28;20047;-64
2022/12/05 02:31:18;;;;;;;53.72;20.67;;;;;;;2.72;92.62;101182.53;5110963;27;20400;-64
2022/12/05 02:33:51;;;;;;;53.67;19.60;;;;;;;2.75;92.36;101180.59;5110762;28;20040;-64
2022/12/05 02:36:37;;;;;;;47.60;20.17;;;;;;;2.90;91.95;101183.22;5111032;28;20067;-64
2022/12/05 02:39:20;;;;;;;48.65;20.60;;;;;;;2.99;91.71;101177.41;5109914;28;20078;-64
2022/12/05 02:42:00;;;;;;;52.63;20.85;;;;;;;2.79;92.06;101189.94;5111107;28;20492;-64
2022/12/05 02:44:35;;;;;;;49.55;21.45;;;;;;;2.77;92.47;101181.34;5111107;28;20144;-64
2022/12/05 02:47:05;;;;;;;51.55;20.27;;;;;;;2.75;92.33;101177.97;5111077;28;20044;-64
2022/12/05 02:49:35;;;;;;;47.20;20.45;;;;;;;2.69;92.45;101176.56;5110743;28;20043;-64
2022/12/05 02:52:04;;;;;;;53.83;20.02;;;;;;;2.79;91.92;101179.47;5109324;28;20405;-64
2022/12/05 02:54:37;;;;;;;47.00;19.88;;;;;;;2.76;92.12;101178.78;5092806;28;20550;-64
2022/12/05 02:57:07;;;;;;;44.08;18.92;;;;;;;2.79;92.08;101187.31;5110673;28;20074;-64
2022/12/05 02:59:34;;;;;;;48.45;19.52;;;;;;;2.80;92.33;101188.16;5110875;28;20044;-64
2022/12/05 03:02:00;;;;;;;51.70;19.98;;;;;;;2.76;92.39;101189.28;5110357;28;20402;-64
2022/12/05 03:04:28;;;;;;;47.17;20.92;;;;;;;2.68;92.00;101185.34;5109390;28;20039;-65
2022/12/05 03:06:59;;;;;;;46.15;20.45;;;;;;;2.70;91.57;101190.50;5109789;28;20040;-64
2022/12/05 03:09:48;;;;;;;51.45;21.48;;;;;;;2.66;92.45;101195.06;5110186;28;20047;-64
2022/12/05 03:12:21;;;;;;;48.25;20.20;;;;;;;2.60;92.69;101203.31;5110677;28;20052;-64
2022/12/05 03:15:00;;;;;;;48.35;20.33;;;;;;;2.63;92.86;101202.28;5110262;28;20047;-64
2022/12/05 03:17:34;;;;;;;48.00;18.98;;;;;;;2.60;92.68;101195.44;5110238;28;20035;-64
2022/12/05 03:20:08;;;;;;;44.17;19.45;;;;;;;2.63;92.82;101204.88;5109857;28;20047;-64
2022/12/05 03:22:57;;;;;;;47.05;19.85;;;;;;;2.70;92.46;101206.22;5108967;28;20116;-63
2022/12/05 03:25:33;;;;;;;45.72;19.80;;;;;;;2.79;92.16;101208.28;5109900;28;20131;-63
2022/12/05 03:28:14;;;;;;;44.67;19.17;;;;;;;2.76;92.51;101210.25;5110339;28;20095;-64
2022/12/05 03:30:41;;;;;;;48.88;19.33;;;;;;;2.63;92.49;101210.97;5108181;28;20052;-65
2022/12/05 03:33:13;;;;;;;51.90;21.67;;;;;;;2.53;92.82;101208.97;5108703;28;20094;-65
2022/12/05 03:38:46;;;;;;;54.42;20.50;;;;;;;2.72;92.73;101206.97;5111026;27;20380;-64
2022/12/05 03:41:23;;;;;;;50.47;20.65;;;;;;;2.70;92.27;101203.59;5111172;28;20054;-65
2022/12/05 03:43:59;;;;;;;49.97;20.08;;;;;;;2.70;92.76;101203.59;5110647;28;20050;-64
2022/12/05 03:46:30;;;;;;;51.92;20.60;;;;;;;2.63;93.00;101195.25;5110096;28;20134;-64
2022/12/05 03:51:55;;;;;;;50.80;19.85;;;;;;;2.83;92.48;101206.31;5111417;27;20354;-64
2022/12/05 03:54:32;;;;;;;44.78;19.55;;;;;;;2.76;93.45;101205.00;5110869;28;20074;-64
2022/12/05 03:57:06;;;;;;;49.03;21.17;;;;;;;2.78;93.72;101205.75;5111046;28;20489;-64
2022/12/05 03:59:38;;;;;;;47.88;20.63;;;;;;;2.76;93.76;101208.44;5110724;28;20122;-64
2022/12/05 04:02:12;;;;;;;52.53;21.88;;;;;;;2.92;93.49;101208.38;5111226;28;20044;-64
2022/12/05 04:04:53;;;;;;;47.83;21.88;;;;;;;2.81;94.44;101211.66;5110570;28;20222;-64
2022/12/05 04:07:21;;;;;;;52.03;22.10;;;;;;;2.79;94.43;101207.44;5109503;28;20546;-64
2022/12/05 04:09:55;;;;;;;53.75;21.20;;;;;;;2.89;95.12;101208.56;5110655;28;20071;-64
2022/12/05 04:12:27;;;;;;;55.42;21.85;;;;;;;2.81;95.37;101210.81;5110738;28;20044;-64
2022/12/05 04:14:58;;;;;;;52.47;21.45;;;;;;;2.90;94.59;101215.50;5109493;28;20096;-64
2022/12/05 04:17:33;;;;;;;51.10;22.08;;;;;;;3.01;94.91;101213.06;5110668;28;20036;-64
2022/12/05 04:22:52;;;;;;;55.63;21.80;;;;;;;3.04;94.93;101212.03;5110410;28;20081;-64
2022/12/05 04:25:34;;;;;;;46.15;21.02;;;;;;;2.92;95.02;101216.25;5109345;28;20289;-64
2022/12/05 04:28:39;;;;;;;46.33;20.08;;;;;;;2.95;95.07;101210.81;5109404;28;20047;-64
2022/12/05 04:31:13;;;;;;;55.53;21.05;;;;;;;3.03;95.02;101212.97;5126143;28;20048;-64
2022/12/05 04:33:49;;;;;;;49.08;21.38;;;;;;;3.16;94.32;101213.88;5110208;28;20093;-64
2022/12/05 04:36:24;;;;;;;48.88;21.75;;;;;;;3.17;94.52;101220.00;5110428;28;20127;-64
2022/12/05 04:39:02;;;;;;;52.42;21.88;;;;;;;3.03;94.59;101221.66;5110594;28;20123;-64
2022/12/05 04:41:35;;;;;;;47.63;20.45;;;;;;;3.09;94.89;101230.94;5109011;28;20040;-64
2022/12/05 04:44:07;;;;;;;50.47;21.92;;;;;;;3.01;95.63;101230.56;5110277;28;20039;-64
2022/12/05 04:46:36;;;;;;;53.90;21.70;;;;;;;3.13;95.06;101229.84;5110158;28;20056;-64
2022/12/05 04:49:08;;;;;;;48.25;21.38;;;;;;;2.73;94.97;101236.63;5109035;28;20135;-64
2022/12/05 04:51:37;;;;;;;53.50;21.27;;;;;;;2.79;95.24;101226.63;5109489;28;20563;-64
2022/12/05 04:54:13;;;;;;;44.30;20.88;;;;;;;2.73;94.81;101227.00;5110452;28;20120;-64
2022/12/05 04:56:42;;;;;;;47.45;21.23;;;;;;;2.72;96.20;101230.53;5109954;28;20048;-63
2022/12/05 04:59:09;;;;;;;48.95;20.45;;;;;;;2.81;96.02;101226.53;5109982;28;20097;-64
2022/12/05 05:01:42;;;;;;;47.28;21.15;;;;;;;2.85;95.67;101228.03;5105084;28;20044;-64
2022/12/05 05:04:16;;;;;;;49.17;21.02;;;;;;;2.86;96.55;101227.94;5096175;28;20048;-64
2022/12/05 05:06:43;;;;;;;45.58;19.98;;;;;;;2.97;96.93;101229.91;5095418;28;20044;-64
2022/12/05 05:09:09;;;;;;;46.90;20.00;;;;;;;2.91;96.42;101229.44;5096079;28;20048;-64
2022/12/05 05:11:37;;;;;;;44.10;20.10;;;;;;;2.86;96.62;101241.03;5096002;28;20118;-64
2022/12/05 05:14:04;;;;;;;45.00;19.67;;;;;;;2.96;96.33;101241.31;5095955;28;20048;-64
2022/12/05 05:16:34;;;;;;;45.55;20.10;;;;;;;2.80;96.42;101241.41;5096300;28;20490;-64
2022/12/05 05:19:01;;;;;;;43.75;20.40;;;;;;;2.74;96.49;101239.16;5095530;28;20570;-64
2022/12/05 05:21:30;;;;;;;44.78;19.63;;;;;;;2.77;96.11;101233.72;5096074;28;20039;-64
2022/12/05 05:23:58;;;;;;;48.00;19.42;;;;;;;2.83;95.67;101240.38;5094660;28;20082;-64
2022/12/05 05:26:27;;;;;;;44.50;19.70;;;;;;;2.88;95.50;101247.03;5094755;28;20489;-64
2022/12/05 05:28:54;;;;;;;44.65;19.15;;;;;;;2.84;95.21;101250.78;5095950;28;20051;-64
2022/12/05 05:31:21;;;;;;;43.58;20.20;;;;;;;3.01;95.02;101246.31;5095425;28;20070;-65
2022/12/05 05:33:49;;;;;;;45.15;20.17;;;;;;;3.06;94.94;101242.47;5095247;28;20044;-65
2022/12/05 05:36:17;;;;;;;41.05;19.15;;;;;;;3.08;95.50;101242.38;5095567;28;20093;-65
2022/12/05 05:38:47;;;;;;;41.03;19.10;;;;;;;3.07;95.23;101244.16;5095826;28;20075;-65
2022/12/05 05:41:17;;;;;;;45.67;19.23;;;;;;;3.08;95.42;101252.84;5095340;28;20064;-65
2022/12/05 05:43:44;;;;;;;40.25;18.85;;;;;;;2.99;95.64;101256.03;5094293;28;20048;-65
2022/12/05 05:46:12;;;;;;;41.22;19.45;;;;;;;3.01;95.87;101252.38;5095297;28;20040;-64
2022/12/05 05:48:39;;;;;;;46.53;20.38;;;;;;;3.01;95.76;101251.53;5095131;28;20055;-64
2022/12/05 05:51:10;;;;;;;43.28;20.00;;;;;;;3.08;95.68;101250.22;5094925;28;20079;-64
2022/12/05 05:53:37;;;;;;;47.75;20.13;;;;;;;3.14;94.65;101256.88;5095562;28;20052;-64
2022/12/05 05:56:06;;;;;;;43.92;21.27;;;;;;;3.18;94.89;101256.59;5095497;28;20397;-65
2022/12/05 05:58:35;;;;;;;41.88;19.42;;;;;;;3.18;95.02;101261.00;5094963;28;20420;-64
2022/12/05 06:01:05;;;;;;;46.10;19.95;;;;;;;3.18;95.43;101255.75;5095021;28;20036;-64
2022/12/05 06:03:33;;;;;;;46.72;21.05;;;;;;;3.18;95.93;101258.38;5094746;28;20051;-64
2022/12/05 06:06:03;;;;;;;48.53;20.55;;;;;;;3.15;96.05;101267.28;5094372;28;20055;-68
2022/12/05 06:08:33;;;;;;;51.13;20.35;;;;;;;3.18;95.27;101266.25;5093925;28;20135;-64
2022/12/05 06:11:11;;;;;;;43.40;20.38;;;;;;;3.17;95.58;101260.16;5094779;28;20044;-64
2022/12/05 06:13:39;;;;;;;46.25;20.52;;;;;;;3.12;95.44;101258.75;5094359;28;20044;-65
2022/12/05 06:16:08;;;;;;;44.90;21.15;;;;;;;3.07;95.99;101262.50;5094689;28;20109;-65
2022/12/05 06:18:35;;;;;;;47.10;19.73;;;;;;;3.07;95.79;101266.88;5094936;28;20052;-64
2022/12/05 06:21:04;;;;;;;44.92;19.88;;;;;;;3.05;96.03;101266.13;5094927;28;20481;-64
2022/12/05 06:23:31;;;;;;;43.55;20.13;;;;;;;3.10;95.72;101265.88;5093538;28;20048;-64
2022/12/05 06:25:58;;;;;;;44.03;21.80;;;;;;;3.14;95.07;101273.44;5093501;28;20044;-64
2022/12/05 06:28:25;;;;;;;47.80;20.45;;;;;;;3.14;94.71;101259.50;5094566;28;20067;-64
2022/12/05 06:30:52;;;;;;;39.45;18.55;;;;;;;3.03;94.86;101268.00;5094418;28;20040;-64
2022/12/05 06:33:19;;;;;;;46.63;19.20;;;;;;;3.15;94.05;101272.53;5093851;28;20052;-64
2022/12/05 06:35:46;;;;;;;48.22;20.55;;;;;;;3.16;94.58;101265.50;5094412;28;20451;-64
2022/12/05 06:38:13;;;;;;;44.22;20.33;;;;;;;3.19;94.62;101278.44;5094377;28;20518;-64
2022/12/05 06:40:42;;;;;;;48.17;19.77;;;;;;;3.21;95.13;101277.38;5094427;28;20044;-64
2022/12/05 06:43:09;;;;;;;43.88;19.65;;;;;;;3.17;94.37;101280.31;5092847;28;20409;-64
2022/12/05 06:45:37;;;;;;;43.95;19.83;;;;;;;3.12;94.76;101283.19;5093909;28;20387;-65
2022/12/05 06:48:05;;;;;;;41.45;19.70;;;;;;;3.14;95.53;101283.94;5076149;28;20079;-64
2022/12/05 06:50:32;;;;;;;47.40;20.73;;;;;;;3.05;95.41;101281.88;5091811;28;20048;-64
2022/12/05 06:52:59;;;;;;;44.63;20.10;;;;;;;3.11;94.85;101288.53;5093716;28;20132;-64
2022/12/05 06:55:26;;;;;;;46.17;19.10;;;;;;;3.07;95.43;101287.84;5093639;28;20447;-64
2022/12/05 06:57:52;;;;;;;40.83;18.27;;;;;;;3.13;94.78;101294.50;5093521;28;20115;-63
2022/12/05 07:03:06;;;;;;;41.65;20.42;;;;;;;3.03;95.06;101299.47;5093536;28;20435;-64
2022/12/05 07:05:33;;;;;;;43.42;19.95;;;;;;;3.12;94.51;101303.31;5093214;28;20555;-64
2022/12/05 07:07:59;;;;;;;40.58;19.25;;;;;;;3.02;95.07;101303.88;5089047;28;20444;-64
2022/12/05 07:10:26;;;;;;;42.13;19.42;;;;;;;2.96;94.94;101301.59;5093615;28;20097;-64
2022/12/05 07:12:52;;;;;;;45.03;19.25;;;;;;;3.02;94.58;101300.38;5093131;28;20062;-64
2022/12/05 07:15:20;;;;;;;43.10;18.80;;;;;;;3.02;95.14;101306.50;5093930;28;20075;-64
2022/12/05 07:17:46;;;;;;;42.22;19.05;;;;;;;3.07;95.06;101308.84;5093969;28;20048;-64
2022/12/05 07:20:16;;;;;;;41.58;19.00;;;;;;;2.98;95.83;101307.59;5093287;28;20093;-64
2022/12/05 07:22:44;;;;;;;36.13;18.27;;;;;;;2.97;95.16;101313.78;5093832;28;20523;-64
2022/12/05 07:25:11;;;;;;;41.88;18.30;;;;;;;3.00;95.97;101315.38;5092119;28;20512;-64
2022/12/05 07:27:38;;;;;;;39.20;17.90;;;;;;;3.01;95.46;101317.06;5093683;28;20397;-64
2022/12/05 07:30:06;;;;;;;38.08;17.55;;;;;;;2.97;95.59;101323.44;5093046;28;20902;-64
2022/12/05 07:32:33;;;;;;;36.92;17.13;;;;;;;2.94;94.93;101321.00;5093451;28;20545;-64
2022/12/05 07:35:00;;;;;;;37.30;17.35;;;;;;;2.95;94.87;101323.53;5093223;28;20044;-64
2022/12/05 07:37:27;;;;;;;36.92;17.00;;;;;;;2.94;95.37;101327.06;5093309;28;20040;-64
2022/12/05 07:39:53;;;;;;;38.88;17.55;;;;;;;2.96;95.64;101327.81;5093604;28;20044;-64
2022/12/05 07:42:21;;;;;;;39.88;18.17;;;;;;;3.01;95.48;101327.56;5093171;28;20040;-64
2022/12/05 07:44:47;;;;;;;37.50;18.17;;;;;;;3.01;95.64;101330.19;5093173;28;20535;-64
2022/12/05 07:47:14;;;;;;;37.63;17.45;;;;;;;3.03;95.54;101328.31;5093105;28;20127;-64
2022/12/05 07:49:41;;;;;;;34.17;16.73;;;;;;;3.07;94.75;101328.03;5093017;28;20064;-64
2022/12/05 07:52:08;;;;;;;36.78;17.30;;;;;;;3.05;94.79;101331.69;5093452;28;20051;-64
2022/12/05 07:54:35;;;;;;;35.78;16.98;;;;;;;3.10;93.89;101332.25;5093032;28;20039;-64
2022/12/05 07:57:02;;;;;;;36.95;16.73;;;;;;;3.12;94.30;101330.38;5093194;28;20085;-64
2022/12/05 07:59:29;;;;;;;39.60;17.20;;;;;;;3.07;94.72;101335.03;5093295;28;20424;-64
2022/12/05 08:01:56;;;;;;;37.03;17.73;;;;;;;2.95;94.35;101331.38;5075147;28;20044;-64
2022/12/05 08:04:22;;;;;;;37.63;16.60;;;;;;;2.83;95.14;101338.16;5092832;28;20044;-64
2022/12/05 08:06:49;;;;;;;37.30;17.48;;;;;;;2.72;94.88;101340.59;5091241;28;20044;-64
2022/12/05 08:09:16;;;;;;;36.65;17.67;;;;;;;2.76;94.85;101333.38;5093441;28;20164;-64
2022/12/05 08:11:42;;;;;;;35.63;16.38;;;;;;;2.76;94.78;101349.09;5091702;28;20493;-64
2022/12/05 08:14:11;;;;;;;32.80;16.58;;;;;;;2.88;95.04;101346.63;5093222;28;20048;-64
2022/12/05 08:16:38;;;;;;;34.92;17.02;;;;;;;2.93;94.92;101348.97;5092687;28;20039;-64
2022/12/05 08:19:07;;;;;;;32.75;16.90;;;;;;;2.93;95.07;101348.97;5093016;28;20047;-64
2022/12/05 08:21:34;;;;;;;36.47;17.25;;;;;;;3.02;94.80;101355.44;5092589;28;20032;-64
2022/12/05 08:24:04;;;;;;;33.05;16.38;;;;;;;2.74;95.04;101359.66;5092980;28;20040;-64
2022/12/05 08:26:33;;;;;;;33.45;16.77;;;;;;;2.81;95.30;101361.00;5065688;28;20151;-64
2022/12/05 08:29:03;;;;;;;32.33;15.50;;;;;;;2.96;95.44;101361.06;5074094;28;20048;-64
2022/12/05 08:31:32;;;;;;;33.65;16.20;;;;;;;3.03;95.25;101368.47;5093969;28;20493;-64
2022/12/05 08:33:59;;;;;;;30.85;16.15;;;;;;;3.02;95.02;101374.66;5087786;28;20512;-65
2022/12/05 08:36:28;;;;;;;34.28;16.55;;;;;;;2.98;95.10;101370.50;5090338;28;20614;-65
2022/12/05 08:38:56;;;;;;;33.58;15.93;;;;;;;3.00;95.32;101376.53;5096070;28;20404;-65
2022/12/05 08:41:27;;;;;;;32.90;16.52;;;;;;;3.02;95.71;101379.91;5091671;28;20432;-65
2022/12/05 08:43:57;;;;;;;34.85;16.38;;;;;;;3.07;94.96;101379.59;5089466;28;20044;-65
2022/12/05 08:46:24;;;;;;;30.70;15.38;;;;;;;3.06;94.60;101380.56;5091171;28;20039;-65
2022/12/05 08:48:51;;;;;;;32.03;14.95;;;;;;;3.00;94.45;101378.28;5080781;28;20515;-65
2022/12/05 08:51:17;;;;;;;32.42;15.68;;;;;;;3.00;94.03;101379.16;5058149;28;20048;-65
2022/12/05 08:53:44;;;;;;;31.77;15.48;;;;;;;2.85;93.90;101385.25;5094904;28;20944;-67
2022/12/05 08:56:12;;;;;;;32.05;16.23;;;;;;;2.92;93.34;101388.38;5099936;28;20128;-64
2022/12/05 08:58:39;;;;;;;35.00;16.55;;;;;;;2.88;94.03;101398.19;5080213;28;20044;-64
2022/12/05 09:01:09;;;;;;;39.53;17.45;;;;;;;2.67;95.84;101389.78;5064462;28;20131;-64
2022/12/05 09:03:37;;;;;;;37.55;17.52;;;;;;;2.72;95.27;101387.75;5090840;28;20055;-64
2022/12/05 09:06:08;;;;;;;34.35;17.05;;;;;;;2.72;95.36;101392.97;5095406;28;20051;-64
2022/12/05 09:08:35;;;;;;;34.55;17.33;;;;;;;2.59;95.67;101389.38;5095440;28;20058;-64
2022/12/05 09:11:05;;;;;;;35.63;17.17;;;;;;;2.62;96.41;101392.66;5092811;28;20045;-64
2022/12/05 09:13:32;;;;;;;39.15;18.00;;;;;;;2.80;96.23;101392.53;5080719;28;20083;-64
2022/12/05 09:16:28;;;;;;;37.45;17.27;;;;;;;2.74;96.65;101393.72;5093253;28;20032;-64
2022/12/05 09:18:58;;;;;;;35.20;16.25;;;;;;;2.55;97.21;101396.56;5104158;28;20119;-65
2022/12/05 09:21:28;;;;;;;39.50;18.05;;;;;;;2.70;96.68;101397.47;5093170;28;20043;-66
2022/12/05 09:23:57;;;;;;;41.05;19.63;;;;;;;2.80;96.80;101403.00;5091032;28;20433;-64
2022/12/05 09:26:26;;;;;;;34.45;17.25;;;;;;;2.81;96.50;101404.72;5098447;28;20565;-64
2022/12/05 09:28:53;;;;;;;32.50;16.63;;;;;;;2.85;96.71;101409.69;5072092;28;20040;-65
2022/12/05 09:31:23;;;;;;;37.53;18.20;;;;;;;2.79;96.97;101414.44;5093706;28;20039;-64
2022/12/05 09:33:50;;;;;;;35.33;16.25;;;;;;;2.55;98.03;101411.41;5051403;28;20055;-64
2022/12/05 09:36:20;;;;;;;36.80;16.98;;;;;;;2.50;97.23;101411.69;5081045;28;20507;-64
2022/12/05 09:38:48;;;;;;;35.03;18.02;;;;;;;2.57;97.20;101402.56;5075054;28;20406;-65
2022/12/05 09:42:09;;;;;;;36.70;17.73;;;;;;;2.61;97.98;101406.69;5084605;28;20052;-64
2022/12/05 09:50:35;;;;;;;34.55;17.05;;;;;;;2.66;97.91;101402.03;5094754;27;20476;-65
2022/12/05 09:55:51;;;;;;;37.00;17.40;;;;;;;2.78;98.24;101403.09;5090209;27;20466;-65
2022/12/05 09:58:27;;;;;;;35.60;17.75;;;;;;;2.73;98.03;101410.41;5073506;28;20049;-65
2022/12/05 10:01:01;;;;;;;36.83;16.17;;;;;;;2.83;97.63;101400.22;5077042;28;20036;-65
2022/12/05 10:03:39;;;;;;;32.05;16.02;;;;;;;2.88;97.48;101400.81;5079998;28;20044;-64
2022/12/05 10:06:27;;;;;;;32.58;16.83;;;;;;;2.99;97.82;101408.91;5076644;28;20497;-64
2022/12/05 10:09:25;;;;;;;31.30;15.93;;;;;;;2.84;96.48;101408.00;5082250;28;20035;-64
2022/12/05 10:12:23;;;;;;;33.97;15.50;;;;;;;2.69;96.80;101406.25;5073839;28;20049;-65
2022/12/05 10:15:08;;;;;;;34.15;15.63;;;;;;;2.53;99.02;101400.19;5074396;28;20131;-64
2022/12/05 10:17:40;;;;;;;31.35;15.35;;;;;;;2.73;97.68;101399.06;5068531;28;20043;-65
2022/12/05 10:20:33;;;;;;;35.13;16.60;;;;;;;2.57;97.50;101399.09;5064181;28;20040;-65
2022/12/05 10:23:07;;;;;;;30.35;15.35;;;;;;;2.55;98.31;101407.03;5077821;28;20036;-65
2022/12/05 10:25:39;;;;;;;32.13;15.07;;;;;;;2.55;98.26;101406.16;5048065;28;20087;-65
2022/12/05 10:28:17;;;;;;;33.78;15.77;;;;;;;2.56;98.49;101400.84;5065983;28;20062;-65
2022/12/05 10:30:47;;;;;;;35.95;16.63;;;;;;;2.63;97.61;101403.97;5051985;28;20060;-65
2022/12/05 10:33:20;;;;;;;35.42;16.45;;;;;;;2.72;97.91;101405.25;5057461;28;20044;-65
2022/12/05 10:35:52;;;;;;;29.85;16.45;;;;;;;2.64;98.38;101398.66;5066185;28;20393;-65
2022/12/05 10:38:27;;;;;;;28.30;15.13;;;;;;;2.49;98.87;101405.63;5074061;28;20040;-65
2022/12/05 10:40:58;;;;;;;33.13;15.68;;;;;;;2.28;99.30;101402.41;5062763;28;20040;-65
2022/12/05 10:43:28;;;;;;;27.77;14.55;;;;;;;2.22;100.00;101396.63;5076377;28;20571;-65
2022/12/05 10:45:56;;;;;;;31.52;15.10;;;;;;;2.32;100.00;101400.44;5069654;28;20072;-65
2022/12/05 10:48:24;;;;;;;33.53;15.00;;;;;;;2.46;100.00;101400.53;5077405;28;20481;-66
2022/12/05 10:50:53;;;;;;;26.35;14.10;;;;;;;2.46;100.00;101405.78;5075148;28;20048;-64
2022/12/05 10:53:28;;;;;;;28.10;14.32;;;;;;;2.56;99.79;101413.13;5080619;28;20482;-64
2022/12/05 10:55:55;;;;;;;27.10;13.95;;;;;;;2.61;99.51;101408.47;5046939;28;20040;-63
2022/12/05 10:58:55;;;;;;;32.08;14.50;;;;;;;2.50;100.00;101409.91;5045790;28;20040;-64
2022/12/05 11:01:22;;;;;;;27.45;14.60;;;;;;;2.57;100.00;101412.19;5026187;28;20052;-64
2022/12/05 11:03:56;;;;;;;25.42;14.73;;;;;;;2.55;100.00;101409.66;5056467;28;20041;-64
2022/12/05 11:06:26;;;;;;;31.08;16.42;;;;;;;2.45;100.00;101408.47;5047480;28;20510;-64
2022/12/05 11:08:58;;;;;;;28.85;16.13;;;;;;;2.46;100.00;101404.94;5027554;28;20056;-64
2022/12/05 11:11:32;;;;;;;28.15;14.07;;;;;;;2.36;100.00;101404.59;5040322;28;20049;-65
2022/12/05 11:14:02;;;;;;;28.63;15.80;;;;;;;2.34;100.00;101401.22;5043054;28;20122;-64
2022/12/05 11:16:32;;;;;;;30.45;15.88;;;;;;;2.35;100.00;101399.44;5024271;28;20435;-65
2022/12/05 11:19:24;;;;;;;33.00;16.80;;;;;;;2.31;100.00;101398.78;5025906;28;20048;-64
2022/12/05 11:21:52;;;;;;;36.05;17.67;;;;;;;2.24;100.00;101398.25;5031068;28;20049;-64
2022/12/05 11:24:37;;;;;;;32.03;17.20;;;;;;;2.18;100.00;101403.81;5040396;28;20083;-65
2022/12/05 11:27:29;;;;;;;33.60;16.90;;;;;;;2.14;100.00;101398.84;5028861;28;20476;-64
2022/12/05 11:30:13;;;;;;;35.05;17.30;;;;;;;2.12;100.00;101396.31;5013551;28;20041;-66
2022/12/05 11:32:40;;;;;;;35.60;17.42;;;;;;;2.16;100.00;101404.84;5023703;28;20120;-65
2022/12/05 11:37:58;;;;;;;31.50;17.48;;;;;;;2.30;100.00;101407.56;5082307;27;20410;-65
2022/12/05 11:40:34;;;;;;;33.50;16.80;;;;;;;2.34;100.00;101403.00;5074748;28;20036;-64
2022/12/05 11:43:33;;;;;;;29.70;15.27;;;;;;;2.40;100.00;101407.88;5088858;28;20047;-64
2022/12/05 11:48:56;;;;;;;27.70;15.00;;;;;;;2.29;100.00;101405.84;5079343;27;20387;-65
2022/12/05 11:51:47;;;;;;;26.90;14.75;;;;;;;2.27;99.23;101403.34;5076786;28;20091;-64
2022/12/05 11:54:54;;;;;;;27.35;14.45;;;;;;;2.28;99.88;101399.78;5080065;28;20036;-65
2022/12/05 11:58:05;;;;;;;26.10;14.23;;;;;;;2.36;99.63;101396.72;5082410;28;20052;-65
2022/12/05 12:01:00;;;;;;;25.63;14.30;;;;;;;2.41;99.65;101399.09;5071173;28;20048;-65
2022/12/05 12:03:44;;;;;;;28.15;14.32;;;;;;;2.34;100.00;101395.13;5099009;28;20044;-65
2022/12/05 12:06:27;;;;;;;25.65;14.48;;;;;;;2.31;99.28;101388.31;5074391;28;20044;-65
2022/12/05 12:09:09;;;;;;;29.33;14.43;;;;;;;2.27;99.11;101390.25;5072712;28;20085;-65
2022/12/05 12:14:35;;;;;;;26.85;14.60;;;;;;;2.26;99.36;101392.94;5045042;28;20704;-65